Mount Orab, Ohio
Current Conditions -  °F | °C
As of 6:53 PM on Tuesday 25 Nov 2014 (Local Time) from KLUK Reporting Station
Clear Clear  
Wind Chill: 32°   Ceiling: Unl
Heat Index: 37°   Visibility: 10mi
Dew Point: 28°   Wind: 6mph
Humidity: 70%   Direction: 350°N
Pressure: 30.18"   Gusts: NA
Location:  39.03°N, 83.92°W
Report Text: KLUK 252353Z 35005KT 10SM CLR 03/M02 A3018 RMK AO2 SLP223 T00281022 10072 20028 51019
Loading
Personal Weather Stations






























Interactive Weather Map New forecast layout! Learn more

10-Day Weather Forecast

Advertisements
Track Severe Weather on mobile